Latest Weather Observations for Yulara

IDD60801

Issued at 3:01 pm CST Tuesday 28 July 2015 (issued every 30 minutes, with the page automatically refreshed every 10 minutes)

About weather observations | Map of weather stations | Latest weather observations for NT | Other Formats
Station Details ID: 015635 Name: YULARA AIRPORT Lat: -25.19 Lon: 130.97 Height: 492.0 m
Data from the previous 72 hours. | See also: Recent months at Yulara
Date/Time
CST
Temp
°C
App
Temp
°C
Dew
Point
Rel
Hum
%
Delta-T
°C
Wind Press
QNH
hPa
Press
MSL
hPa
Rain
since 9 am
mm
Dir
 
Spd
km/h
Gust
km/h
Spd
kts
Gust
kts
28/03:00pm 16.4 10.7 -0.8 31 7.4 E 19 30 10 16 1028.7 1028.5 0.2
28/02:30pm 16.2 10.3 -0.5 32 7.2 ENE 20 28 11 15 1029.2 1029.1 0.0
28/02:00pm 15.1 9.4 -1.0 33 6.9 ENE 19 30 10 16 1029.9 1029.7 0.0
28/01:30pm 14.9 9.1 0.0 36 6.4 ENE 20 30 11 16 1030.4 1030.2 0.0
28/01:00pm 14.9 9.3 1.4 40 6.0 E 20 28 11 15 1030.9 1030.8 0.0
28/12:30pm 13.8 7.0 1.1 42 5.5 E 26 37 14 20 1030.8 1030.6 0.0
28/12:00pm 13.1 6.4 1.5 45 5.1 E 26 39 14 21 1031.6 1031.5 0.0
28/11:30am 12.8 5.4 2.1 48 4.7 ENE 30 37 16 20 1032.2 1032.0 0.0
28/11:00am 11.4 3.7 2.2 53 4.1 E 32 44 17 24 1032.6 1032.5 0.0
28/10:30am 11.1 2.1 2.2 54 3.9 E 39 50 21 27 1032.6 1032.5 0.0
28/10:00am 10.0 2.4 2.6 60 3.3 E 32 43 17 23 1033.0 1032.9 0.0
28/09:30am 9.3 2.5 3.3 66 2.6 E 28 35 15 19 1033.0 1032.9 0.0
28/09:00am 8.1 2.5 3.6 73 2.0 E 22 30 12 16 1033.2 1033.1 0.0
28/08:30am 6.1 1.1 3.4 83 1.2 ESE 19 26 10 14 1033.2 1033.1 0.0
28/08:00am 4.7 0.0 3.0 89 0.7 SE 17 20 9 11 1033.1 1033.0 0.0
28/07:30am 4.0 0.0 3.0 93 0.4 SE 13 17 7 9 1032.8 1032.7 0.0
28/07:00am 4.4 0.5 3.4 93 0.4 SE 13 15 7 8 1032.6 1032.5 0.0
28/06:30am 4.6 0.4 3.6 93 0.4 SE 15 17 8 9 1032.3 1032.1 0.0
28/06:00am 4.5 0.2 3.5 93 0.4 SE 15 17 8 9 1032.0 1031.8 0.0
28/05:30am 3.9 0.7 3.2 95 0.3 S 9 13 5 7 1032.0 1031.8 0.0
28/05:00am 4.1 0.9 3.1 93 0.4 SSE 9 11 5 6 1031.7 1031.6 0.0
28/04:30am 5.1 1.3 3.8 91 0.6 S 13 17 7 9 1031.9 1031.7 0.0
28/04:00am 5.5 2.5 4.2 91 0.6 SE 9 11 5 6 1030.9 1030.8 0.0
28/03:30am 5.4 2.4 3.9 90 0.6 SE 9 11 5 6 1030.9 1030.8 0.0
28/03:00am 6.0 3.0 4.2 88 0.8 SE 9 13 5 7 1030.8 1030.6 0.0
28/02:30am 6.5 3.1 4.2 85 1.0 ESE 11 15 6 8 1030.8 1030.6 0.0
28/02:00am 6.8 3.9 4.5 85 1.0 SE 9 13 5 7 1031.4 1031.3 0.0
28/01:30am 7.7 4.4 4.7 81 1.3 ESE 11 17 6 9 1031.6 1031.5 0.0
28/01:00am 8.1 4.4 4.5 78 1.6 ESE 13 17 7 9 1032.0 1031.8 0.0
28/12:30am 8.5 5.2 4.3 75 1.9 ESE 11 17 6 9 1032.2 1032.0 0.0
28/12:00am 9.0 6.0 4.2 72 2.2 ESE 9 13 5 7 1032.6 1032.5 0.0
 
Date/Time
CST
Temp
°C
App
Temp
°C
Dew
Point
Rel
Hum
%
Delta-T
°C
Wind Press
QNH
hPa
Press
MSL
hPa
Rain
since 9 am
mm
Dir
 
Spd
km/h
Gust
km/h
Spd
kts
Gust
kts
27/11:30pm 9.3 6.0 4.3 71 2.3 SE 11 15 6 8 1032.7 1032.6 0.0
27/11:00pm 9.8 6.1 4.4 69 2.5 ESE 13 17 7 9 1032.7 1032.6 0.0
27/10:30pm 9.4 6.0 4.2 70 2.3 SE 11 15 6 8 1032.5 1032.3 0.0
27/10:00pm 9.9 6.2 4.3 68 2.5 SE 13 15 7 8 1032.5 1032.3 0.0
27/09:30pm 10.5 7.5 4.2 65 2.9 SE 9 11 5 6 1032.4 1032.2 0.0
27/09:00pm 11.3 8.0 4.3 62 3.2 SE 11 15 6 8 1032.3 1032.1 0.0
27/08:30pm 11.6 8.6 4.1 60 3.4 SE 9 13 5 7 1032.1 1031.9 0.0
27/08:00pm 12.6 9.2 3.8 55 4.1 ESE 11 15 6 8 1031.9 1031.7 0.0
27/07:30pm 13.4 9.6 3.8 52 4.4 ESE 13 17 7 9 1031.5 1031.4 0.0
27/07:00pm 14.2 10.7 3.7 49 4.9 ESE 11 13 6 7 1031.0 1030.9 0.0
27/06:30pm 15.5 11.6 3.3 44 5.7 ESE 13 20 7 11 1030.7 1030.5 0.0
27/06:00pm 16.5 11.4 3.2 41 6.2 ESE 19 26 10 14 1030.4 1030.2 0.0
27/05:30pm 17.1 12.1 3.8 41 6.3 ESE 19 28 10 15 1030.2 1030.0 0.0
27/05:00pm 17.6 12.5 3.9 40 6.6 E 20 33 11 18 1029.9 1029.7 0.0
27/04:30pm 18.0 12.2 4.6 41 6.5 E 24 32 13 17 1029.5 1029.4 0.0
27/04:00pm 17.4 10.7 3.7 40 6.6 E 28 41 15 22 1029.4 1029.3 0.0
27/03:30pm 17.6 11.8 4.5 42 6.3 E 24 35 13 19 1029.5 1029.4 0.0
27/03:00pm 17.1 10.5 4.4 43 6.1 E 28 39 15 21 1029.9 1029.7 0.0
27/02:30pm 16.9 10.8 4.6 44 5.9 E 26 37 14 20 1030.1 1029.9 0.0
27/02:00pm 16.8 10.7 4.8 45 5.8 E 26 41 14 22 1030.5 1030.3 0.0
27/01:30pm 16.1 10.0 4.8 47 5.4 ESE 26 37 14 20 1031.1 1031.0 0.0
27/01:00pm 16.2 9.4 5.2 48 5.4 E 30 39 16 21 1031.6 1031.5 0.0
27/12:30pm 15.1 8.2 4.8 50 4.9 E 30 43 16 23 1032.2 1032.0 0.0
27/12:00pm 15.2 7.8 5.1 51 4.9 E 33 43 18 23 1032.6 1032.5 0.0
27/11:30am 14.4 7.3 5.7 56 4.2 E 32 43 17 23 1033.1 1033.0 0.0
27/11:00am 13.9 6.9 5.8 58 3.9 E 32 41 17 22 1033.3 1033.2 0.0
27/10:30am 13.6 7.4 6.0 60 3.7 ESE 28 39 15 21 1033.6 1033.5 0.0
27/10:00am 12.2 5.9 5.8 65 3.1 ESE 28 37 15 20 1033.8 1033.7 0.0
27/09:30am 10.8 5.7 6.0 72 2.3 ESE 22 30 12 16 1033.8 1033.7 0.0
27/09:00am 9.3 4.8 6.2 81 1.5 ESE 19 28 10 15 1033.5 1033.4 0.0
27/08:30am 7.8 4.4 5.8 87 0.9 SE 13 20 7 11 1033.2 1033.1 0.0
27/08:00am 6.5 3.3 5.1 91 0.6 SE 11 15 6 8 1032.9 1032.8 0.0
27/07:30am 5.9 2.2 4.7 92 0.5 SE 13 15 7 8 1032.7 1032.6 0.0
27/07:00am 6.2 2.2 4.8 91 0.6 SE 15 19 8 10 1032.4 1032.2 0.0
27/06:30am 6.3 2.2 4.6 89 0.8 SE 15 20 8 11 1032.0 1031.8 0.0
27/06:00am 6.2 2.1 4.4 88 0.8 SE 15 19 8 10 1031.7 1031.6 0.0
27/05:30am 6.5 2.4 4.3 86 1.0 SE 15 20 8 11 1031.5 1031.4 0.0
27/05:00am 6.2 2.5 4.4 88 0.8 SSE 13 17 7 9 1031.4 1031.3 0.0
27/04:30am 6.8 2.8 4.8 87 0.9 SE 15 19 8 10 1031.3 1031.2 0.0
27/04:00am 6.9 3.3 5.2 89 0.8 SE 13 17 7 9 1031.2 1031.1 0.0
27/03:30am 6.4 3.3 5.5 94 0.4 SSE 11 13 6 7 1031.2 1031.1 0.0
27/03:00am 6.7 3.6 5.5 92 0.5 SSE 11 13 6 7 1031.1 1031.0 0.0
27/02:30am 6.8 3.4 5.7 93 0.5 SSE 13 13 7 7 1031.2 1031.1 0.0
27/02:00am 7.3 4.3 5.9 91 0.6 SE 11 13 6 7 1031.3 1031.2 0.0
27/01:30am 7.5 4.5 6.1 91 0.6 SSE 11 13 6 7 1031.3 1031.2 0.0
27/01:00am 7.7 5.1 6.3 91 0.7 SE 9 11 5 6 1031.3 1031.2 0.0
27/12:30am 7.9 5.0 6.5 91 0.7 SSE 11 13 6 7 1031.2 1031.1 0.0
27/12:00am 8.2 5.4 7.0 92 0.6 SSE 11 13 6 7 1031.3 1031.2 0.0
 
Date/Time
CST
Temp
°C
App
Temp
°C
Dew
Point
Rel
Hum
%
Delta-T
°C
Wind Press
QNH
hPa
Press
MSL
hPa
Rain
since 9 am
mm
Dir
 
Spd
km/h
Gust
km/h
Spd
kts
Gust
kts
26/11:30pm 8.7 6.4 7.3 91 0.7 SSE 9 11 5 6 1031.3 1031.2 0.0
26/11:00pm 9.1 6.8 7.5 90 0.8 SE 9 11 5 6 1031.2 1031.1 0.0
26/10:30pm 9.6 7.4 7.7 88 0.9 SSE 9 11 5 6 1031.2 1031.1 0.0
26/10:00pm 9.8 7.7 8.1 89 0.8 SSE 9 11 5 6 1031.0 1030.9 0.0
26/09:30pm 10.3 8.2 8.1 86 1.1 SSE 9 11 5 6 1030.9 1030.8 0.0
26/09:00pm 10.7 9.2 8.3 85 1.2 SE 6 7 3 4 1030.8 1030.6 0.0
26/08:30pm 10.8 8.3 8.2 84 1.3 S 11 15 6 8 1030.2 1030.0 0.0
26/08:00pm 12.1 10.0 8.4 78 1.9 SSE 9 13 5 7 1029.6 1029.5 0.0
26/07:30pm 12.8 10.0 8.7 76 2.1 SSE 13 17 7 9 1029.2 1029.1 0.0
26/07:00pm 13.0 10.6 8.7 75 2.2 SE 11 15 6 8 1028.6 1028.4 0.0
26/06:30pm 13.3 10.5 8.6 73 2.4 SSE 13 17 7 9 1028.3 1028.1 0.0
26/06:00pm 13.6 10.5 8.7 72 2.5 SSE 15 22 8 12 1027.8 1027.6 0.0
26/05:30pm 13.8 10.3 8.6 71 2.7 SSE 17 22 9 12 1027.7 1027.5 0.0
26/05:00pm 13.7 9.8 8.5 71 2.7 SSE 19 24 10 13 1027.4 1027.3 0.0
26/04:30pm 13.7 9.9 9.0 73 2.4 SSE 19 26 10 14 1027.3 1027.2 0.0
26/04:00pm 13.7 9.7 9.2 74 2.3 S 20 26 11 14 1027.0 1026.8 0.0
26/03:30pm 14.8 12.1 9.0 68 3.0 ESE 13 19 7 10 1027.0 1026.8 0.0
26/03:00pm 15.1 11.6 7.4 60 3.9 ESE 15 20 8 11 1026.9 1026.7 0.0
26/02:30pm 15.2 11.0 7.5 60 3.9 E 19 24 10 13 1026.4 1026.2 0.0
26/02:00pm 15.6 11.3 7.1 57 4.3 E 19 28 10 15 1026.7 1026.5 0.0
26/01:30pm 15.4 10.8 6.7 56 4.3 SE 20 26 11 14 1027.6 1027.4 0.0
26/01:00pm 15.3 10.8 6.1 54 4.6 ESE 19 30 10 16 1028.2 1028.0 0.0
26/12:30pm 15.0 11.0 6.8 58 4.1 ESE 17 22 9 12 1028.9 1028.7 0.0
26/12:00pm 14.8 10.9 6.9 59 3.9 ESE 17 24 9 13 1029.0 1028.8 0.0
26/11:30am 14.8 11.3 7.4 61 3.7 SE 15 20 8 11 1029.5 1029.4 0.0
26/11:00am 14.4 10.6 7.5 63 3.5 ESE 17 24 9 13 1029.6 1029.5 0.0
26/10:30am 13.4 9.2 7.4 67 3.0 SE 19 22 10 12 1029.8 1029.6 0.0
26/10:00am 13.0 8.8 7.5 69 2.8 SE 19 24 10 13 1029.6 1029.5 0.0
26/09:30am 12.3 8.6 7.8 74 2.2 SE 17 22 9 12 1028.9 1028.7 0.0
26/09:00am 12.1 8.8 8.0 76 2.1 SE 15 20 8 11 1028.7 1028.5 0.0
26/08:30am 11.9 9.1 8.7 81 1.6 SE 13 17 7 9 1028.2 1028.0 0.0
26/08:00am 11.8 9.0 8.6 81 1.6 SSE 13 17 7 9 1028.2 1028.0 0.0
26/07:30am 11.7 9.3 8.6 81 1.6 S 11 15 6 8 1028.2 1028.0 0.0
26/07:00am 11.8 8.6 8.5 80 1.7 SSE 15 22 8 12 1027.6 1027.4 0.0
26/06:30am 11.8 9.1 8.8 82 1.5 SSE 13 17 7 9 1027.1 1026.9 0.0
26/06:00am 12.0 8.6 9.2 83 1.4 S 17 22 9 12 1026.8 1026.6 0.0
26/05:30am 12.2 7.9 9.4 83 1.4 S 22 30 12 16 1026.4 1026.2 0.0
26/05:00am 12.3 9.6 11.8 97 0.3 SSW 17 26 9 14 1026.3 1026.1 0.0
26/04:30am 12.2 11.1 11.9 98 0.2 SSW 9 15 5 8 1025.6 1025.3 0.0
26/04:00am 12.2 11.3 11.3 94 0.5 SSE 7 9 4 5 1024.9 1024.7 0.0
26/03:30am 12.4 13.0 11.9 97 0.3 CALM 0 0 0 0 1024.7 1024.5 0.0
26/03:00am 12.5 13.1 12.0 97 0.3 CALM 0 2 0 1 1024.9 1024.7 0.0
26/02:30am 12.5 11.8 12.0 97 0.3 SE 7 9 4 5 1024.6 1024.4 0.0
26/02:00am 12.6 11.8 11.8 95 0.4 SE 7 9 4 5 1024.7 1024.5 0.0
26/01:30am 12.6 12.1 12.0 96 0.3 SE 6 9 3 5 1025.2 1025.0 0.0
26/01:00am 12.5 11.7 11.7 95 0.4 S 7 11 4 6 1025.3 1025.1 0.0
26/12:30am 12.6 11.8 11.7 94 0.5 S 7 11 4 6 1025.7 1025.5 0.0
26/12:00am 12.6 11.7 11.5 93 0.6 S 7 11 4 6 1025.7 1025.5 0.0
 
Date/Time
CST
Temp
°C
App
Temp
°C
Dew
Point
Rel
Hum
%
Delta-T
°C
Wind Press
QNH
hPa
Press
MSL
hPa
Rain
since 9 am
mm
Dir
 
Spd
km/h
Gust
km/h
Spd
kts
Gust
kts
25/11:30pm 12.6 13.0 11.3 92 0.7 CALM 0 0 0 0 1025.6 1025.3 0.0
25/11:00pm 12.7 13.1 11.3 91 0.8 CALM 0 6 0 3 1025.5 1025.2 0.0
25/10:30pm 12.7 11.7 11.1 90 0.9 SE 7 9 4 5 1025.2 1025.0 0.0
25/10:00pm 12.8 11.8 11.0 89 1.0 SE 7 11 4 6 1025.3 1025.1 0.0
25/09:30pm 12.9 11.9 11.1 89 1.0 SSE 7 11 4 6 1025.5 1025.2 0.0
25/09:00pm 12.9 11.6 11.1 89 1.0 SE 9 11 5 6 1025.0 1024.8 0.0
25/08:30pm 13.0 12.1 11.2 89 1.0 SSE 7 13 4 7 1025.1 1024.9 0.0
25/08:00pm 13.1 12.7 11.2 88 1.0 SSE 4 9 2 5 1025.2 1025.0 0.0
25/07:30pm 13.3 12.4 10.7 84 1.4 ESE 6 9 3 5 1024.5 1024.3 0.0
25/07:00pm 13.6 12.4 10.2 80 1.8 E 7 11 4 6 1024.1 1023.9 0.0
25/06:30pm 14.3 12.0 10.5 78 2.0 E 13 17 7 9 1024.0 1023.8 0.0
25/06:00pm 14.6 12.8 10.8 78 2.0 E 11 15 6 8 1024.3 1024.1 0.0
25/05:30pm 14.6 12.8 10.8 78 2.0 E 11 17 6 9 1023.9 1023.7 0.0
25/05:00pm 14.6 13.1 10.6 77 2.2 E 9 13 5 7 1023.8 1023.5 0.0
25/04:30pm 14.5 12.2 10.5 77 2.1 E 13 17 7 9 1023.1 1022.9 0.0
25/04:00pm 14.8 11.8 10.8 77 2.2 E 17 22 9 12 1022.7 1022.5 0.0
25/03:30pm 15.0 12.2 11.4 79 2.0 ENE 17 20 9 11 1022.4 1022.2 0.0
25/03:03pm 15.3 13.2 12.4 83 1.6 E 15 20 8 11 1022.8 1022.6 0.0

Other Formats:

Comma delimited format used in spreadsheet applications
http://www.bom.gov.au/fwo/IDD60801/IDD60801.94462.axf

JavaScript Object Notation format (JSON) in row-major order
http://www.bom.gov.au/fwo/IDD60801/IDD60801.94462.json